EUROPE TAF 24 HOURS - 12 Dec 2017 - 2347 UTC - RocketRoute WX - rrwx.com
EGPD 122256Z 1300/1324 21009KT 9999 FEW015 SCT030 PROB40 TEMPO 1307/1310 6000 SHRA BKN014 EGAA 122258Z 1300/1324 22012KT 9999 FEW012 SCT025 PROB30 TEMPO 1300/1306 22016G27KT 7000 SHRA BKN012 TEMPO 1306/1308 23016G27KT 3000 +RA BKN007 TEMPO 1308/1311 7000 SHRA BKN012 TEMPO 1311/1324 24017G27KT 3000 SHRASN BKN004 BKN012CB PROB40 TEMPO 1316/1321 0500 SHSN VV/// EGKB 122012Z 1221/1223 19006KT CAVOK TEMPO 1221/1223 7000 RA BKN010 EGHH 122001Z 1221/1306 20009KT 9999 FEW030 TEMPO 1221/1303 21015G25KT 8000 -RA PROB30 TEMPO 1221/1302 RA BKN014 BECMG 1301/1304 27010KT EGGD 122256Z 1300/1324 19015G25KT 2000 RADZ BKN002 BECMG 1300/1303 27010KT 9999 NSW SCT035 TEMPO 1305/1314 6000 SHRA BKN009 BECMG 1306/1309 21012KT PROB40 TEMPO 1306/1313 3000 +SHRA BKN004 TEMPO 1309/1312 22018G32KT BECMG 1312/1315 27015G25KT TEMPO 1315/1324 27025G40KT TEMPO 1317/1324 6000 SHRA BKN010 PROB30 TEMPO 1318/1324 2000 +SHRASN BKN003 EGFF 122302Z 1300/1324 22012KT 9999 SCT016 BECMG 1300/1303 28010KT TEMPO 1304/1324 5000 SHRA BKN010 PROB30 TEMPO 1305/1314 28025G40KT +SHRA BKN008 BECMG 1315/1318 29020KT PROB30 TEMPO 1317/1324 29025G40KT 3000 +SHRAGS BKN008 BKN020CB EGCN 122257Z 1300/1324 21012KT 9999 SCT030 PROB40 TEMPO 1300/1309 7000 BKN008 TEMPO 1309/1315 6000 SHRA BKN012 PROB30 TEMPO 1312/1315 20017G27KT 4000 +SHRA BKN008 BECMG 1318/1321 27011KT TEMPO 1318/1324 6000 -SHRASN BKN008 PROB40 TEMPO 1318/1324 -SHSN SHRASN BKN004 EGNV 121709Z 1218/1222 19009KT 9999 FEW035 TEMPO 1218/1222 6000 -RADZ BKN010 PROB30 TEMPO 1218/1222 3000 RADZ BKN005 PROB30 TEMPO 1220/1222 21016G26KT EGNX 122302Z 1300/1324 22014KT 9999 SCT035 PROB30 TEMPO 1300/1305 0300 FZFG BKN001 TEMPO 1307/1315 25018G32KT 6000 SHRA BKN005 PROB30 TEMPO 1310/1314 4000 +SHRA BKN003 TEMPO 1318/1324 27020G35KT 7000 SHRA BKN010 PROB30 TEMPO 1323/1324 1400 +SHRASN BKN004 EGPH 122256Z 1300/1324 24009KT 9999 SCT020 TEMPO 1303/1312 24015G25KT 5000 SHRA BKN008 TEMPO 1312/1319 25015G25KT 2000 SHRASN -SHSN BKN006 EGTE AMD 122333Z 1223/1302 22008KT 9999 SCT012 PROB30 TEMPO 1223/1302 23015G25KT 7000 RA BKN008 EGLF 121718Z 1218/1222 23007KT CAVOK PROB30 1218/1219 6000 PROB30 1219/1222 6000 -SHRA BKN010 EGPF 122257Z 1300/1324 22008KT 9999 FEW015 SCT025 TEMPO 1300/1311 6000 SHRA BKN012 PROB40 TEMPO 1304/1311 22015G25KT 4000 +SHRA BKN008 TEMPO 1311/1319 23015G25KT 4000 SHRASN BKN007 PROB40 TEMPO 1315/1324 1400 SHSN BKN003 EGJB 122305Z 1300/1309 20020KT 9999 -RA BKN015 TEMPO 1300/1302 5000 RA BKN005 BECMG 1301/1303 28020KT BKN030 TEMPO 1305/1309 5000 SHRA BKN018CB EGNJ 122259Z 1300/1309 22011KT 9999 SCT025 PROB40 1300/1306 3000 BR BKN004 EGPE 122255Z 1300/1309 24010KT 9999 SCT025 PROB40 TEMPO 1307/1309 5000 SHRA -SHRASN BKN012 EGJJ 122305Z 1300/1309 20020KT 9999 -RA BKN015 TEMPO 1300/1303 5000 RA BKN005 BECMG 1302/1304 28020KT BKN030 TEMPO 1306/1309 5000 SHRA BKN018CB EGPA 122255Z 1300/1309 22012KT 9999 BKN025 PROB30 TEMPO 1300/1304 23015G25KT 7000 -SHRA TEMPO 1307/1309 5000 SHRA BKN014 EGNM 122256Z 1300/1324 23012KT 9999 SCT020 PROB30 1300/1303 BKN007 TEMPO 1306/1312 23020G30KT TEMPO 1306/1314 7000 SHRA BKN012 BECMG 1312/1315 27018G30KT PROB30 TEMPO 1312/1314 3000 +SHRA BKN009 PROB30 TEMPO 1312/1324 27025G40KT TEMPO 1316/1324 4000 SHRASN BKN009 PROB30 TEMPO 1318/1324 1200 +SHRASN SHSN BKN002 EGGP 122302Z 1300/1324 18009KT 9999 SCT016 BECMG 1300/1303 24012KT PROB30 TEMPO 1300/1306 BKN006 TEMPO 1306/1324 6000 SHRA BKN010 PROB30 TEMPO 1310/1313 27020G30KT 4000 +SHRA BKN009 PROB30 TEMPO 1316/1324 28022G32KT 3000 +SHRAGS BKN004 BKN020CB BECMG 1321/1324 27025KT EGLC 121718Z 1218/1222 23007KT 9999 FEW020 PROB30 1218/1220 6000 PROB30 1220/1222 6000 SHRA BKN010 EGKK 122256Z 1300/1406 22010KT 9999 SCT030 TEMPO 1300/1305 19015G25KT 6000 RA BKN010 PROB30 TEMPO 1300/1305 3000 RADZ BKN006 TEMPO 1308/1316 7000 SHRA BKN010 PROB30 TEMPO 1313/1316 24018G30KT 4000 +SHRA BKN008 BKN025CB BECMG 1318/1321 27015G25KT TEMPO 1320/1406 26025G35KT TEMPO 1320/1324 7000 SHRA PROB40 TEMPO 1320/1322 4000 +SHRA BKN010 EGLL 122301Z 1300/1406 20010KT 9999 BKN025 TEMPO 1300/1306 7000 -RA BKN012 PROB30 TEMPO 1300/1306 20015G25KT 3000 RADZ BKN005 TEMPO 1310/1316 27018G28KT 7000 SHRA BKN012 PROB30 TEMPO 1312/1316 4000 +SHRA BECMG 1320/1324 26020G30KT TEMPO 1320/1324 6000 SHRA BKN012 EGGW 122257Z 1300/1324 17010KT 7000 -RA BKN015 BECMG 1300/1303 24010KT 0300 -DZ FG BKN001 PROB30 TEMPO 1300/1302 23015G25KT BECMG 1305/1308 9999 NSW FEW040 TEMPO 1308/1316 7000 RA BKN009 PROB30 TEMPO 1311/1316 25015G25KT 3000 +SHRA BKN004 TEMPO 1319/1324 28020G32KT 2000 SHSN BKN004 PROB30 TEMPO 1319/1322 0300 +SHSN VV/// EGSS 122257Z 1300/1406 17010KT 7000 RA BKN015 BECMG 1300/1303 24010KT 3000 -DZ BKN004 PROB30 TEMPO 1300/1302 23015G25KT PROB30 TEMPO 1301/1306 0300 FG BKN001 BECMG 1305/1308 9999 NSW FEW040 TEMPO 1308/1316 7000 RA BKN009 PROB30 TEMPO 1311/1317 25015G25KT 3000 +SHRA BKN004 TEMPO 1320/1324 28020G32KT 2000 SHSN BKN004 PROB30 TEMPO 1320/1323 0300 +SHSN VV/// PROB30 TEMPO 1400/1406 28020G32KT EGMD 122301Z 1300/1309 21025KT 9999 SCT030 BKN045 TEMPO 1300/1306 7000 RA BKN012 PROB40 TEMPO 1301/1305 23028G40KT 3000 SHRA BKN007 BECMG 1303/1306 26015KT EGCC 122302Z 1300/1406 21008KT 9999 SCT010 TEMPO 1300/1307 4000 BR BKN003 PROB30 TEMPO 1300/1305 0300 FZFG BKN001 TEMPO 1307/1406 6000 SHRA BKN010 BECMG 1310/1313 28015KT PROB30 TEMPO 1310/1313 27018G28KT 4000 +SHRA BKN006 PROB30 TEMPO 1317/1406 27020G30KT 1400 +SHRASN BKN002 BKN020CB EGMH   EGNT 122257Z 1300/1324 20007KT 9999 SCT025 PROB30 TEMPO 1300/1306 7000 BKN010 TEMPO 1306/1314 6000 SHRA BKN014 PROB40 TEMPO 1310/1314 21015G25KT 4000 +SHRA BKN008 BECMG 1312/1315 26010KT PROB30 TEMPO 1314/1316 25015G25KT 3000 SHRASN BKN008 EGSH 122012Z 1221/1224 20009KT 9999 SCT020 PROB40 TEMPO 1222/1224 6000 RA BKN010 EGPK 122257Z 1300/1324 23012KT 9999 SCT025 PROB30 TEMPO 1300/1304 7000 SHRA BKN014 TEMPO 1304/1318 24018G30KT TEMPO 1304/1311 6000 SHRA BKN010 TEMPO 1311/1324 4000 -SHRASN SHRAGS BKN007 PROB30 TEMPO 1312/1324 1400 SHSN BKN003 EGKA AMD 121831Z 1218/1220 21010KT 9999 SCT030 PROB30 TEMPO 1218/1220 7000 SHRA EGHI 122001Z 1221/1223 20009KT 9999 FEW030 TEMPO 1221/1223 21015G25KT 8000 -RA PROB30 TEMPO 1221/1223 RA BKN014 EGMC 122301Z 1300/1309 20008KT 9999 FEW020 BKN045 TEMPO 1300/1304 7000 RA BKN012 PROB40 TEMPO 1300/1304 23015G25KT 3000 RADZ BKN007 BECMG 1304/1306 26012KT TEMPO 1304/1307 3000 DZ BKN004 EGPC 122255Z 1300/1309 23008KT 9999 SCT025 TEMPO 1308/1309 5000 RADZ BKN014 LXGB AMD 121456Z 1215/1222 08003KT 9999 FEW025 BECMG 1218/1221 VRB03KT EDDB 122300Z 1300/1324 21009KT 9999 BKN015 TEMPO 1300/1303 BKN014 BECMG 1309/1311 20014KT PROB30 TEMPO 1311/1316 19015G25KT BECMG 1316/1318 19015G25KT TEMPO 1321/1324 BKN010 EDDW 122300Z 1300/1324 22012KT 9999 BKN007 BECMG 1302/1305 BKN025 TEMPO 1309/1324 19015G25KT BECMG 1309/1312 BKN012 TEMPO 1312/1319 4000 -RA BKN007 PROB30 TEMPO 1312/1316 2500 -RASN BKN003 TEMPO 1321/1324 4000 -RA BKN007 EDDC 122300Z 1300/1324 22008KT 9999 SCT040 BECMG 1309/1311 18013KT BECMG 1316/1318 17015G25KT EDDL 122300Z 1300/1406 17011KT 9999 FEW035 BECMG 1305/1308 19015G25KT TEMPO 1310/1314 19020G30KT RA TEMPO 1320/1323 21020G30KT RA BECMG 1321/1324 25015G25KT TEMPO 1401/1406 25020G35KT SHRA BKN015CB EDFH 122300Z 1300/1324 23007KT 9999 SCT005 BKN015 TEMPO 1300/1309 BKN005 BECMG 1304/1306 22013KT BECMG 1307/1309 21015G25KT BKN012 TEMPO 1309/1318 22020G35KT 1000 SN OVC002 TEMPO 1318/1324 22020G35KT 2000 RA SCT001 BKN003 EDDF 122300Z 1300/1406 19006KT 9999 SCT045 BECMG 1303/1305 BKN040 BECMG 1307/1309 20012KT BECMG 1309/1312 20015G25KT TEMPO 1311/1313 4500 RASN TEMPO 1313/1403 RA PROB40 TEMPO 1315/1403 4000 RA BKN009 EDDH 122300Z 1300/1406 22012KT 9999 BKN007 BECMG 1303/1306 BKN025 TEMPO 1306/1406 20015G25KT BECMG 1310/1313 BKN012 TEMPO 1313/1320 4000 -RA BKN007 PROB30 TEMPO 1313/1317 2500 -RASN BKN003 TEMPO 1322/1402 4000 -RA BKN007 BECMG 1402/1405 BKN020 EDDV 122300Z 1300/1324 22007KT 9999 BKN015 BECMG 1300/1303 20012KT TEMPO 1300/1303 BKN012 BECMG 1310/1313 BKN012 TEMPO 1310/1324 19015G25KT TEMPO 1313/1320 4000 -RA BKN007 PROB30 TEMPO 1313/1317 2500 -RASN TEMPO 1322/1324 4000 -RA BKN007 EDAH 121400Z 1215/1224 25015G30KT 9999 BKN010 TEMPO 1215/1220 2500 -RASN BKN004 BECMG 1216/1219 25012KT EDSB 121700Z 1218/1318 22008KT 9999 SCT040 PROB30 TEMPO 1218/1220 4000 SHRASN BKN015CB BECMG 1307/1310 20013KT TEMPO 1310/1318 20015G30KT TEMPO 1312/1318 RA EDVK 122000Z 1221/1303 23006KT 9999 SCT025 BKN045 BECMG 1223/1301 20012KT EDDK 122300Z 1300/1406 16007KT 9999 FEW035 BECMG 1305/1308 16012KT TEMPO 1311/1315 19015G25KT RA TEMPO 1321/1401 RA PROB30 TEMPO 1321/1324 27015G25KT BECMG 1321/1324 24011KT TEMPO 1402/1406 25015G30KT SHRA BKN015CB ETNL 122300Z 1300/1312 23010KT 6000 NSW BKN008 TEMPO 1300/1308 21015KT 3000 BR BKN004 BY ETGL EDDP 122300Z 1300/1324 20011KT 9999 FEW025 BECMG 1308/1311 19015G30KT EDHL 121700Z 1218/1221 27005KT 9999 BKN035 EDDM 122300Z 1300/1406 23005KT 9999 SCT040 BECMG 1304/1306 17005KT BECMG 1316/1318 22010KT TEMPO 1318/1322 4000 RASN BKN012 PROB30 TEMPO 1318/1320 2500 SN BKN008 TEMPO 1322/1406 RA BECMG 1402/1404 24015G25KT EDDG 122300Z 1300/1324 18008KT 9999 SCT020 BECMG 1307/1310 19015G25KT BECMG 1311/1314 BKN012 TEMPO 1312/1315 RA PROB30 TEMPO 1313/1320 BKN008 BECMG 1321/1324 25015G25KT BKN015 TEMPO 1321/1324 21020G30KT RA EDDN 122300Z 1300/1324 17005KT 9999 SCT030 PROB30 TEMPO 1300/1306 4500 -SHSN SCT020TCU BECMG 1309/1311 17010KT BECMG 1316/1318 18015G25KT 2500 -SN BKN012 BECMG 1318/1320 17010KT 9000 BKN030 TEMPO 1320/1324 22015G25KT RA EDLP 122300Z 1300/1324 19011KT 9999 FEW025 BECMG 1304/1307 19015G25KT TEMPO 1310/1317 21020G35KT PROB30 TEMPO 1312/1315 RA TEMPO 1321/1324 20020G35KT RA EDDR 122300Z 1300/1324 20007KT 9999 SCT005 BKN015 TEMPO 1300/1309 BKN005 BECMG 1305/1307 20012KT BECMG 1307/1309 20015G25KT TEMPO 1309/1316 21020G35KT 2000 SNRA SCT003 BKN006 TEMPO 1316/1324 21020G35KT 2000 RA SCT002 BKN005 EDDS 122300Z 1300/1324 19004KT 9999 FEW040 BECMG 1308/1310 19009KT PROB30 TEMPO 1315/1318 20015G25KT TEMPO 1316/1319 RASN TEMPO 1319/1324 RA EDXW 121400Z 1215/1218 29012KT 9999 FEW025 EDDT 122300Z 1300/1324 20008KT 9999 BKN015 TEMPO 1300/1303 BKN010 BECMG 1310/1312 18013KT PROB30 TEMPO 1311/1316 19015G25KT BECMG 1316/1318 19015G25KT TEMPO 1321/1324 BKN010 LFLB 122045Z 1220/1312 VRB02KT 9999 BKN015 BECMG 1308/1310 18010KT CAVOK LFBZ 121700Z 1218/1318 23005KT 9999 SCT035 TEMPO 1309/1312 21015G25KT -RA BKN030 LFLC 122000Z 1221/1321 18010KT CAVOK TEMPO 1309/1312 -RA BKN050 BKN090 TEMPO 1309/1315 18015G25KT BECMG 1316/1318 18015G25KT BKN050 TEMPO 1318/1321 -RA OVC040 PROB30 TEMPO 1318/1321 21020G40KT LFSB 122300Z 1300/1324 18005KT 9999 FEW030 PROB30 TEMPO 1300/1307 4000 BR TEMPO 1314/1321 25010G25KT -RA BECMG 1321/1324 24020G30KT -RA LFBL 121700Z 1218/1318 16005KT 9999 BKN040 BECMG 1219/1221 BKN008 OVC025 BECMG 1221/1224 OVC004 TEMPO 1301/1306 3000 BR OVC002 TEMPO 1306/1312 3000 -RADZ OVC002 BECMG 1312/1314 OVC002 LFBI   LFBO 121700Z 1218/1324 VRB03KT 9999 FEW030 TEMPO 1316/1320 25010KT BECMG 1320/1322 26012KT LFRB 122300Z 1300/1406 21012KT 9999 OVC010 TEMPO 1300/1302 24015G25KT 3000 -RA OVC002 BECMG 1302/1304 28008KT BKN020 BECMG 1309/1312 21015G25KT 3000 RA SCT003 OVC005 BECMG 1315/1317 27020G30KT 9999 NSW BKN025 TEMPO 1317/1406 27025G40KT 3000 SHRA BKN015TCU PROB30 TEMPO 1400/1406 SHRAGS BKN013CB LFLY 122300Z 1300/1324 VRB02KT CAVOK TEMPO 1300/1308 3000 BR PROB30 TEMPO 1300/1308 0800 FZFG VV/// BECMG 1308/1310 18010KT TEMPO 1312/1314 -RA BKN040 OVC060 BECMG 1314/1315 18015G25KT BECMG 1317/1319 18020G35KT TEMPO 1319/1321 -RA BKN040 OVC060 PROB30 TEMPO 1321/1323 18025G45KT LFRK 121400Z 1215/1224 21008KT 9999 SCT040 BECMG 1218/1221 20013KT TEMPO 1222/1224 20015G25KT LFMN 122000Z 1221/1403 32010KT CAVOK BECMG 1309/1311 20008KT TEMPO 1318/1403 24017G30KT LFST 122300Z 1300/1324 17005KT CAVOK BECMG 1312/1315 OVC040 TEMPO 1315/1324 18015G25KT -RA PROB40 TEMPO 1320/1324 4000 RA LFTW 121400Z 1218/1315 33005KT CAVOK LFRH 122300Z 1300/1324 22015G25KT 9999 BKN007 OVC010 TEMPO 1300/1303 22020G30KT 3000 RADZ OVC004 BECMG 1303/1304 28012KT SCT020 BECMG 1308/1310 26015G25KT OVC015 BECMG 1311/1313 22020G30KT 3000 RA BKN006 OVC012 TEMPO 1314/1315 25025G40KT 1500 +RA OVC004 BECMG 1315/1316 28015G30KT 9999 NSW BKN025 PROB30 TEMPO 1321/1324 27025G40KT SHRA BKN035TCU LFPB 122300Z 1300/1324 20012KT CAVOK BECMG 1303/1305 20015G25KT BKN010 TEMPO 1305/1309 20015G30KT 4000 RA BKN008 TEMPO 1315/1320 20015G30KT 3000 RA BKN008 BECMG 1320/1322 25015G25KT SCT020 TEMPO 1322/1324 25015G30KT 4000 -SHRA BKN020TCU PROB40 TEMPO 1322/1324 25020G35KT LFQQ 122300Z 1300/1406 20015KT CAVOK BECMG 1300/1303 BKN012 TEMPO 1304/1321 19020G35KT 3000 RA OVC004 FM132100 27015G25KT 9999 SCT030 TEMPO 1400/1406 27025G35KT 4000 SHRA BKN020TCU LFAT 121400Z 1215/1224 24007KT 9999 BKN030 PROB30 TEMPO 1219/1224 4000 SHRA LFMT 122000Z 1221/1321 VRB05KT CAVOK TEMPO 1318/1321 BKN014 LFBD   LFRS 122300Z 1300/1406 18007KT 9999 SCT025 BKN050 BECMG 1301/1303 5000 -RA BKN010 OVC030 TEMPO 1304/1306 22015G25KT 3000 RA BKN005 OVC015 TEMPO 1306/1310 25010KT 8000 NSW BKN013 BKN040 BECMG 1310/1312 22015G25KT TEMPO 1314/1318 28020G35KT 3000 RA BKN005 OVC015 BECMG 1318/1320 8000 NSW BKN015 BKN040 PROB30 TEMPO 1320/1324 SHRA TEMPO 1400/1404 27020G35KT BECMG 1404/1406 24010KT LFKJ 122000Z 1221/1321 VRB05KT 9999 SCT040 OVC060 TEMPO 1221/1224 4000 RA BKN010 FEW025TCU BECMG 1310/1312 30010KT LFPG 122300Z 1300/1406 20012KT CAVOK BECMG 1303/1305 20015G25KT BKN010 TEMPO 1305/1309 20015G30KT 4000 RA BKN008 TEMPO 1315/1320 20015G30KT 3000 RA BKN008 BECMG 1320/1322 25015G25KT SCT020 TEMPO 1322/1406 25015G30KT 4000 -SHRA BKN020TCU PROB40 TEMPO 1322/1402 25020G35KT TX08/1321Z TN06/1406Z LFPO   LFRD 122300Z 1300/1324 19015G25KT 5000 RA OVC030 BECMG 1300/1302 BKN012 TEMPO 1301/1304 3000 RA BKN005 BECMG 1303/1305 24012KT 9999 NSW BKN025 BECMG 1310/1312 22015G25KT BECMG 1312/1314 5000 RA BKN015 TEMPO 1314/1317 3000 RA BKN008 BECMG 1316/1318 27020G30KT 9999 NSW BKN025 TEMPO 1318/1321 5000 SHRA BKN020TCU TEMPO 1321/1324 27025G40KT 4000 SHRA BKN015CB LFKB 122000Z 1221/1321 VRB05KT 9999 SCT030 BKN070 OVC110 BECMG 1301/1303 23010KT TX15/1313Z TN08/1304Z LFML 122000Z 1221/1403 33012KT CAVOK BECMG 1306/1309 VRB05KT TEMPO 1318/1403 BKN035 TX09/1315Z TN02/1306Z LFMP AMD 121811Z 1218/1315 32010KT CAVOK BECMG 1220/1222 VRB03KT LFLL 122300Z 1300/1406 16005KT CAVOK TEMPO 1300/1307 2000 BR PROB30 TEMPO 1300/1306 0800 BCFG BKN003 BECMG 1310/1312 18012KT BECMG 1312/1314 18015G30KT -RA BKN040 PROB40 TEMPO 1318/1402 18025G40KT LFRN 122300Z 1300/1324 19012KT 9999 BKN030 BECMG 1300/1302 5000 RA BECMG 1301/1303 BKN010 TEMPO 1302/1305 22015G25KT 3000 RA BKN005 BECMG 1304/1306 27010KT 9999 NSW SCT020 BECMG 1309/1312 22012KT BECMG 1312/1314 5000 RA BKN015 TEMPO 1314/1317 23015G25KT 3000 RA BKN008 BECMG 1316/1318 28015KT 9999 NSW SCT020 TEMPO 1318/1321 26015G25KT TEMPO 1321/1324 5000 SHRA BKN020TCU BECMG 1321/1323 26020G30KT LFOB 122300Z 1300/1324 VRB03KT CAVOK BECMG 1300/1303 20013KT BKN012 TEMPO 1306/1321 19020G35KT 3000 RA OVC004 FM132100 27015G25KT 9999 SCT030 LFPN   LFOT 122300Z 1300/1324 19010KT 9999 SCT045 BKN230 PROB40 TEMPO 1300/1305 BKN008 FM130500 19015KT 9999 BKN012 BKN025 TEMPO 1305/1309 19020G30KT 3000 RA BKN007 TEMPO 1309/1311 BKN007 TEMPO 1311/1315 SCT020 TEMPO 1315/1320 22020G35KT 2000 RA BKN005 SCT015TCU FM132000 26015KT 9999 SCT025 SCT090 TEMPO 1320/1324 26020G30KT EBBR 122300Z 1300/1406 19010KT 9999 FEW025 SCT045 BECMG 1304/1306 21016G26KT BKN014 TEMPO 1305/1310 4000 RADZ SCT005 BKN008 TEMPO 1311/1314 22013KT TEMPO 1314/1320 4000 RA SHRA BKN008 SCT015TCU BECMG 1319/1321 25014KT 9999 NSW SCT020 BKN035 PROB40 TEMPO 1322/1402 24017G28KT 3500 SHRASNGS BKN006 SCT015CB EBCI 122300Z 1300/1406 19010KT 9999 FEW020 SCT045 PROB30 TEMPO 1301/1304 BKN008 BECMG 1304/1306 21016G27KT SCT008 BKN012 TEMPO 1306/1311 3500 RADZ SCT004 BKN007 TEMPO 1311/1314 22013KT TEMPO 1314/1320 4000 RA SHRA BKN007 SCT015TCU BECMG 1319/1321 26013KT 8000 NSW SCT015 BKN030 PROB40 TEMPO 1322/1402 24018G28KT 3000 SHRASN BKN005 SCT015CB EBAW 122300Z 1300/1309 20010KT 8000 FEW020 SCT040 BECMG 1303/1305 20015G25KT BKN014 TEMPO 1305/1309 4000 RADZ SCT005 BKN008 EBLG 122300Z 1300/1406 19013KT 9999 SCT025 SCT045 PROB30 TEMPO 1302/1305 BKN009 BECMG 1305/1307 21017G28KT SCT008 BKN012 TEMPO 1307/1312 3500 RADZ SCT005 BKN008 TEMPO 1312/1315 21013KT TEMPO 1316/1322 4000 RA SHRA BKN008 SCT015TCU BECMG 1320/1322 26015KT 8000 NSW SCT015 BKN030 PROB40 TEMPO 1400/1403 24018G28KT 3000 SHSNRA BKN005 SCT015CB EBOS 122300Z 1300/1406 19015KT 9999 SCT020 SCT040 TEMPO 1303/1308 20020G35KT 4000 RADZ SCT007 BKN009 BECMG 1308/1310 26016KT TEMPO 1312/1317 22018G30KT TEMPO 1313/1319 4000 RA SHRA SCT008 BKN014TCU BECMG 1317/1319 30025G38KT BECMG 1319/1321 27022G35KT TEMPO 1321/1324 4000 SHRA SHRASN BKN008 SCT020CB BECMG 1405/1406 24022G35KT EHEH 121720Z 1218/1324 21007KT 4000 BR BKN005 OVC007 BECMG 1219/1222 6000 NSW FEW012 SCT020 PROB30 1222/1306 3000 BR BECMG 1300/1303 19015G25KT BECMG 1306/1308 4000 -RASN SCT008 BKN012 TEMPO 1306/1312 3000 RASN SCT005 BKN009 BECMG 1311/1313 9999 NSW FEW005 SCT012 BKN020 PROB40 TEMPO 1311/1324 4000 SHRA SCT005 BKN010 SCT015CB TEMPO 1317/1322 4500 RA SCT005 BKN008 OVC010 BECMG 1322/1324 26012KT SCT020 EHGG 122322Z 1300/1406 20015KT 4000 BR BKN004 BECMG 1300/1303 9999 NSW NSC BECMG 1306/1309 19018G28KT 7000 -RASN BKN006 PROB40 TEMPO 1307/1311 2000 SNRA BKN003 PROB30 TEMPO 1311/1313 4000 RASN BKN003 BECMG 1312/1315 22014KT 9999 NSW BKN020 BECMG 1315/1318 18017G27KT 7000 -RA BKN012 TEMPO 1318/1322 4000 RA BKN006 BECMG 1321/1324 25015KT 9999 NSW SCT020 TEMPO 1404/1406 25017G27KT 4000 RASN SHSNRA BKN006 SCT015CB PROB30 TEMPO 1404/1406 2000 TSSNRA BKN003 EHBK 122323Z 1300/1406 20015KT 9999 SCT025 BECMG 1307/1310 21023G33KT 7000 -RA SCT012 BKN018 TEMPO 1308/1312 4000 RA RASN SCT008 BKN012 PROB30 TEMPO 1308/1312 2000 SNRA BKN003 BECMG 1312/1315 22016KT 9999 NSW BECMG 1315/1318 20020G30KT 7000 -RA TEMPO 1318/1322 4000 RA SCT008 BKN012 BECMG 1321/1324 25014KT 9999 NSW TEMPO 1402/1406 25020G30KT 4000 RA SHRASN BKN006 SCT015CB PROB30 TEMPO 1402/1406 2000 TSSNRA BKN003 EHRD 122323Z 1300/1406 18015KT CAVOK BECMG 1301/1304 19017G27KT 7000 -RA -RASN BKN012 TEMPO 1304/1311 4000 DZRA BKN006 BECMG 1310/1313 25013G23KT 9999 NSW SCT020 BECMG 1314/1317 20015KT 7000 -RA BKN012 TEMPO 1317/1320 21020G30KT 4500 RA -SHRA BKN008 FEW020CB BECMG 1319/1321 27015G25KT 9999 NSW SCT025 BECMG 1322/1401 24015KT TEMPO 1401/1406 27020G30KT 3500 SHRA TSRAGS SCT018CB BKN020 EHAM 122323Z 1300/1406 18015KT CAVOK BECMG 1301/1304 19017G27KT 7000 -RA -RASN BKN012 TEMPO 1304/1311 4000 DZRA BKN006 BECMG 1310/1313 25013G23KT 9999 NSW SCT020 BECMG 1314/1317 20015KT 7000 -RA BKN012 TEMPO 1317/1320 21020G30KT 4500 RA -SHRA BKN008 FEW020CB BECMG 1319/1321 27015G25KT 9999 NSW SCT025 BECMG 1322/1401 24015KT TEMPO 1401/1406 27020G30KT 3500 SHRA TSRAGS SCT018CB BKN020 ELLX 122300Z 1300/1406 20008KT 9999 BKN008 TEMPO 1306/1311 -SN BECMG 1311/1312 BKN010 BECMG 1314/1316 22015G25KT BKN015 TEMPO 1316/1324 3000 RA TEMPO 1400/1406 26020G40KT SHRA PROB40 1402/1405 TSGS BKN015CB LOWG 122315Z 1300/1324 01010KT 9999 FEW015 SCT025 BKN035 TX04/1300Z TNM02/1321Z TEMPO 1300/1308 VRB02KT 4000 RASN BKN012 PROB30 TEMPO 1306/1309 1200 BCFG BKN003 BECMG 1308/1310 24005KT BKN060 BECMG 1316/1319 CAVOK PROB30 TEMPO 1320/1324 VRB02KT 0800 BCFG NSC LOWI 122315Z 1300/1324 VRB02KT 6000 SCT005 BKN020 TX02/1313Z TNM02/1307Z TEMPO 1300/1303 3000 -SN BR VV005 TEMPO 1303/1310 BKN005 BECMG 1309/1311 09005KT 9999 FEW010 SCT050 BECMG 1317/1319 27010KT 9999 SCT040 BKN100 LOWK 122315Z 1300/1324 03010KT 9999 FEW025 SCT035 BKN050 TX02/1312Z TN01/1321Z BECMG 1300/1303 33004KT TEMPO 1300/1315 2500 -RASN SCT010 BKN030 PROB30 TEMPO 1303/1310 2000 SN BKN008 LOWL 122315Z 1300/1324 25005KT 8000 FEW025 BKN120 TX03/1313Z TNM01/1322Z PROB30 1304/1308 VRB02KT 4000 BR BKN008 BECMG 1308/1310 08005KT CAVOK BECMG 1319/1322 VRB02KT 8000 SCT040 BKN070 LOWS 122315Z 1300/1324 15006KT 9999 SCT030 BKN050 TX04/1312Z TNM02/1306Z TEMPO 1300/1318 15012KT BECMG 1304/1306 FEW050 SCT120 BECMG 1308/1310 CAVOK BECMG 1318/1320 9999 FEW080 BKN120 LOWW 122315Z 1300/1406 31010KT CAVOK TX06/1312Z TN01/1406Z BECMG 1312/1314 15007KT BECMG 1318/1320 15012KT LOAN AMD 121213Z 1212/1221 28005KT 9999 FEW010 SCT040 BKN060 TEMPO 1212/1218 32015KT RA FEW030 BKN040 LOXZ 121415Z 1215/1224 07008KT 9999 SCT050 BKN120 BECMG 1218/1221 VRB03KT 5000 -RASN FEW010 SCT040 BKN050 LSMA   LFSB 122300Z 1300/1324 18005KT 9999 FEW030 PROB30 TEMPO 1300/1307 4000 BR TEMPO 1314/1321 25010G25KT -RA BECMG 1321/1324 24020G30KT -RA LSZB 121425Z 1215/1224 VRB03KT 9999 FEW010 BKN020 TEMPO 1215/1220 2500 -SHSN BKN009 LSZC 121425Z 1215/1224 VRB03KT 9999 BKN015 PROB40 TEMPO 1215/1219 4000 -SNRA BKN010 LSMD   LSME   LSZR 121425Z 1215/1224 10005KT 9999 FEW020 BKN035 TEMPO 1215/1222 4500 -SN BKN013 LSGG 122325Z 1300/1406 VRB03KT CAVOK TX04/1315Z TNM04/1306Z TN02/1406Z PROB30 TEMPO 1305/1309 0600 FZFG VV003 BECMG 1309/1311 23010KT 9999 SCT140 TEMPO 1315/1403 24015G25KT PROB40 TEMPO 1318/1403 4500 RA LSZG 121425Z 1215/1224 24004KT 9999 SCT015 BKN025 LSGC 121425Z 1215/1224 24007KT 9999 FEW010 BKN030 BECMG 1219/1221 CAVOK LSZL 121725Z 1218/1303 08005KT 5000 BR SCT100 PROB30 TEMPO 1221/1224 1200 BCFG BKN004 LSZA 121425Z 1215/1224 VRB03KT 9999 SCT045 BKN160 LSMM   LSMP   LSZS 121425Z 1215/1224 21006KT 9999 SCT020 BKN035 TX00/1215Z PROB40 TEMPO 1215/1224 2500 -SN BKN014 LSGS 121425Z 1215/1224 VRB03KT 9999 SCT015 BKN080 BECMG 1218/1221 CAVOK LSZH 122325Z 1300/1406 VRB03KT 8000 MIFG NSC TX04/1314Z TNM03/1306Z TN03/1403Z BECMG 1300/1303 3000 PROB40 1303/1309 0300 FZFG VV001 BECMG 1307/1309 CAVOK BECMG 1311/1314 23006KT 9999 SCT030 BKN050 PROB30 TEMPO 1315/1318 4000 RASN BKN012 TEMPO 1316/1406 RA BKN013 PROB40 TEMPO 1400/1406 27015G28KT PROB30 1400/1406 4500 SHRA BKN012 LEAL 122300Z 1300/1324 31008KT CAVOK TX17/1312Z TN04/1306Z BECMG 1312/1314 24010KT LEAM 122000Z 1221/1321 02005KT 9999 SCT040 TX14/1314Z TN06/1307Z LEAS 122000Z 1221/1321 23009KT 9999 FEW060 TX16/1314Z TN07/1221Z TEMPO 1300/1321 25015G28KT TEMPO 1318/1321 3000 RA BKN014 LEBZ 122300Z 1300/1324 VRB02KT CAVOK TX14/1315Z TNM01/1308Z LEBL 122300Z 1300/1324 33010KT 9999 FEW025 TX14/1312Z TN03/1306Z PROB40 TEMPO 1300/1309 33015G25KT BECMG 1310/1312 25013KT LEBB 122300Z 1300/1324 20009KT 9999 SCT040 TX15/1314Z TN04/1304Z TEMPO 1303/1321 20015G25KT PROB30 TEMPO 1312/1321 RA TEMPO 1321/1324 3000 RA LEGR 122000Z 1221/1321 VRB02KT CAVOK TX12/1315Z TNM01/1307Z LEIB 122000Z 1221/1321 33005KT 9999 FEW025 TX16/1309Z TN07/1306Z BECMG 1310/1312 24010KT TEMPO 1315/1321 24015G25KT LEJR 122300Z 1300/1324 02005KT CAVOK TX16/1315Z TN03/1307Z LELN 121700Z 1218/1303 25006KT 9999 BKN045 PROB40 TEMPO 1300/1303 3000 BR BKN014 LEMD 122300Z 1300/1406 VRB05KT CAVOK TX11/1314Z TNM04/1307Z PROB40 TEMPO 1311/1320 23010KT PROB40 TEMPO 1312/1318 23008G18KT TEMPO 1404/1406 23010KT PROB40 TEMPO 1404/1406 1500 BR BKN008 LEMG 122300Z 1300/1324 30005KT CAVOK TX16/1313Z TN07/1305Z LEMH 122000Z 1221/1321 36010KT 9999 SCT030 TX15/1309Z TN07/1306Z PROB40 TEMPO 1221/1303 4000 SHRA BKN025 SCT030TCU BECMG 1300/1302 VRB03KT BECMG 1310/1312 24010KT TEMPO 1318/1321 24015G25KT LELC 122300Z 1300/1324 31009KT CAVOK TX15/1314Z TN06/1307Z LEPA 122300Z 1300/1324 VRB03KT 9999 SCT020 TX15/1312Z TN03/1306Z BECMG 1311/1313 24013KT LERS 122000Z 1221/1321 VRB04KT 9999 FEW040 TX14/1309Z TN01/1306Z BECMG 1307/1309 25010KT LEXJ 122000Z 1221/1321 22009KT 9999 SCT060 TX15/1314Z TN07/1221Z PROB40 TEMPO 1300/1309 22015G25KT TEMPO 1318/1321 3000 RA LEST 122300Z 1300/1324 21009KT 6000 SCT010 BKN020 TX13/1314Z TN06/1307Z TEMPO 1300/1324 BKN010 TEMPO 1300/1310 3000 -RADZ BR BKN005 PROB40 TEMPO 1300/1310 0800 BCFG BKN002 TEMPO 1312/1321 23015G25KT TEMPO 1315/1324 1500 RA BR BKN005 PROB40 TEMPO 1315/1324 0600 RA BCFG BKN002 LEZL 122000Z 1221/1321 03005KT CAVOK TX16/1315Z TN03/1308Z LEVC 122300Z 1300/1324 27008KT CAVOK TX17/1312Z TN02/1306Z TEMPO 1300/1310 VRB04KT PROB40 TEMPO 1312/1324 27015G25KT LEVD 122300Z 1300/1324 VRB04KT CAVOK TX09/1315Z TNM03/1307Z TEMPO 1304/1311 3000 BR BKN002 PROB40 TEMPO 1305/1310 0100 FG FEW001 TEMPO 1311/1319 BKN012 TEMPO 1311/1324 23014KT BECMG 1321/1323 BKN001 OVC003 TEMPO 1322/1324 OVC003 LEVT 122300Z 1300/1324 23006KT 9999 FEW050 TX11/1314Z TNM01/1304Z PROB40 TEMPO 1310/1324 23015G25KT PROB40 TEMPO 1318/1324 RA LEZG 122300Z 1300/1324 23010KT 9999 FEW040 TX14/1313Z TN01/1306Z PROB30 TEMPO 1304/1312 VRB04KT PROB40 TEMPO 1300/1324 24015G25KT GCLP 122000Z 1221/1321 02025KT 9999 BKN040 TX20/1314Z TN16/1306Z TEMPO 1221/1321 02025G35KT PROB30 TEMPO 1221/1310 4500 RA GCRR 122000Z 1221/1321 02020KT 9999 SCT040 TX20/1314Z TN14/1306Z TEMPO 1221/1318 02020G30KT GCXO AMD 122225Z 1222/1321 34015KT 9999 BKN012 TX16/1314Z TN11/1306Z TEMPO 1222/1310 34015G30KT BECMG 1310/1312 04015KT PROB30 TEMPO 1222/1318 4000 DZRA BCFG BKN007 GCTS AMD 122148Z 1221/1321 04020KT 9999 SCT040 TX23/1314Z TN15/1306Z TEMPO 1221/1321 05020G30KT PROB40 TEMPO 1221/1321 05030G43KT LPFR 122300Z 1300/1324 02005KT CAVOK BECMG 1310/1312 09010KT BECMG 1316/1318 03005KT LPPT 122300Z 1300/1406 VRB03KT 9999 BKN035 TEMPO 1306/1316 5000 DZ BR SCT004 BKN010 BECMG 1315/1317 23005KT SCT015 SCT030 BECMG 1321/1324 VRB03KT 3000 BR BKN004 PROB30 TEMPO 1400/1406 0500 DZ FG VV001 LPMA 122300Z 1300/1324 02015KT 9999 SCT015 TEMPO 1300/1318 02020G30KT 6000 -RA BKN013 FEW018TCU PROB30 TEMPO 1300/1318 01025G35KT LPPD 122300Z 1300/1324 VRB05KT 9999 BKN020 TEMPO 1300/1309 BKN008 BECMG 1312/1315 33007KT LPPR 122300Z 1300/1324 18010KT 8000 SCT005 BKN020 PROB40 TEMPO 1303/1312 5000 DZ BR SCT004 BKN008 BECMG 1318/1321 3000 DZ BR SCT002 BKN004 LPPS 122300Z 1300/1406 04015KT 9999 SCT015 TEMPO 1300/1320 03020G30KT BKN012 FEW016TCU LPAZ 121700Z 1218/1324 03010KT 9999 SCT012 BKN030 TEMPO 1218/1318 BKN012 BECMG 1222/1224 33008KT LPST 121408Z 1215/1224 36010KT 9999 FEW020 PROB30 TEMPO 1215/1217 36012G22KT 8000 -SHRA BKN018 BECMG 1216/1218 36005KT LIEA 122300Z 1300/1324 VRB05KT 9999 SCT030 BECMG 1300/1302 29012KT TEMPO 1300/1303 RA BECMG 1315/1318 22012KT LIBD 122300Z 1300/1324 21008KT 9999 SCT030 TEMPO 1309/1318 RA BECMG 1312/1315 30010KT LIME 122300Z 1300/1324 VRB05KT CAVOK TEMPO 1302/1307 3500 BR LIPE 122300Z 1300/1324 VRB05KT 7000 FEW050 TEMPO 1300/1308 2000 BR BECMG 1320/1323 3000 BR LIRN 122300Z 1300/1324 22013KT 9999 SCT020 BKN040 BECMG 1306/1309 29013KT TEMPO 1306/1312 4000 SHRA LICC 122300Z 1300/1324 25008KT 9999 SCT030 LIRA 122300Z 1300/1324 23010KT 9999 SCT015 BKN030 TEMPO 1300/1306 3000 SHRA BECMG 1316/1318 VRB05KT LIBC 121700Z 1218/1318 22015KT 9999 SCT030 LIEE 122300Z 1300/1324 33012KT 9999 SCT040 TEMPO 1300/1303 RA LIPY 122300Z 1300/1324 VRB05KT 9999 SCT030 TEMPO 1300/1312 RA LIRF 122300Z 1300/1406 30011KT 9999 SCT012 BKN030 TEMPO 1300/1306 3000 SHRA BKN013 BKN030 LIMJ 122300Z 1300/1324 VRB05KT 9999 SCT035 LICD 121700Z 1218/1318 20016KT CAVOK BECMG 1309/1312 36015KT LIML 122300Z 1300/1324 VRB05KT 0400 FG OVC004 BECMG 1308/1311 6000 SCT015 BECMG 1320/1322 2500 BCFG LIMC 122300Z 1300/1406 VRB05KT CAVOK TEMPO 1300/1308 3000 BCFG TEMPO 1322/1406 3000 BCFG LIEO 122300Z 1300/1324 VRB06KT 9999 SCT040 BECMG 1303/1306 26015KT BECMG 1310/1312 28015G25KT LICJ 122300Z 1300/1324 20015KT 9999 SCT030 BECMG 1309/1311 27015KT TEMPO 1312/1318 RA LIBP 122300Z 1300/1324 VRB05KT 9999 SCT030 TEMPO 1300/1312 4000 RA LIRP 122300Z 1300/1324 15005KT 9999 SCT030 SCT050 TEMPO 1300/1306 22010KT 5000 RA BR TEMPO 1318/1324 3000 RA BR LICR 121700Z 1218/1318 20015KT 9999 SCT030 BECMG 1219/1221 VRB05KT BECMG 1310/1312 01010KT LIMF 122300Z 1300/1324 VRB05KT CAVOK TEMPO 1302/1307 3000 BCFG LIRU 121400Z 1215/1224 16012KT 6000 SCT020 BECMG 1215/1218 VRB05KT TEMPO 1215/1224 4000 SHRA LIPZ 122300Z 1300/1406 VRB05KT 3000 BR SCT015 TEMPO 1300/1308 0400 FG BKN003 BECMG 1306/1309 03012KT 8000 BECMG 1316/1319 VRB05KT 3000 BR TEMPO 1400/1406 0400 FG BKN004 EETN 122325Z 1300/1324 28016G26KT 9999 BKN010 OVC020 TEMPO 1300/1307 2000 SHSNRA BKN004 SCT013CB BECMG 1307/1309 22012KT BKN025 TEMPO 1314/1319 19015G25KT 2000 SHSNRA BKN005 SCT013CB EETU   EVRA 122300Z 1300/1324 25015G28KT 8000 -RA OVC010 TEMPO 1300/1304 26020G32KT 4000 -SHRASN BKN005 SCT010CB BECMG 1305/1307 BKN015 BECMG 1308/1309 19010KT TEMPO 1309/1324 16015G26KT SCT010CB EVLA 122301Z 1300/1324 26018G28KT 9999 OVC007 TEMPO 1300/1305 27022G33KT BECMG 1305/1306 BKN015 BECMG 1310/1312 20017KT TEMPO 1312/1324 17020G30KT BKN010 EYKA 122306Z 1300/1324 24016G28KT 9000 OVC030 TEMPO 1303/1306 5000 RASN SCT005 BECMG 1306/1307 24016KT TEMPO 1307/1314 BKN010 BECMG 1314/1315 19006KT SCT030 EYSA 122311Z 1300/1309 24016G28KT 9000 OVC025 TEMPO 1300/1306 5000 RA BKN010 BECMG 1306/1307 22014KT TEMPO 1307/1309 BKN005 EYPA 122309Z 1300/1324 27014G26KT 9000 BKN020 TEMPO 1300/1303 RA BKN010 TEMPO 1305/1312 5000 SHRA SCT005 BKN015CB BECMG 1314/1316 18012G22KT TEMPO 1318/1324 BKN007 EYVI 122303Z 1300/1324 23016G28KT 9000 BKN025 TEMPO 1300/1303 RA TEMPO 1303/1306 3000 RASN SCT005 BECMG 1306/1307 24016KT TEMPO 1307/1313 BKN010 BECMG 1313/1315 21006KT SCT030 UMKK 122300Z 1300/1324 26008G16MPS 9999 SCT011 BKN015 TEMPO 1300/1309 3100 -SHRASN BKN005 BKN015CB BECMG 1306/1308 23008G14MPS BECMG 1314/1316 19007G13MPS EKYT 122309Z 1300/1324 21008KT 9999 SCT020 BKN050 TEMPO 1300/1306 3000 -SHRASN BR BKN006 SCT020CB BECMG 1306/1308 19015KT 6000 -RADZ BKN012 TEMPO 1308/1317 18018G28KT 2500 RASN BR BKN008 SCT020TCU TEMPO 1317/1324 2500 -RASN BR BKN003 SCT020TCU EKAH 122313Z 1300/1324 22008KT 9999 SCT020 TEMPO 1300/1308 4000 -SHRASN BKN012 SCT020TCU BECMG 1308/1310 -RADZ BKN010 TEMPO 1310/1316 19018G30KT 1500 RASN BKN004 TEMPO 1316/1324 1200 SHRASN BR BKN004 SCT020CB EKBI 122313Z 1300/1324 20008KT 9999 SCT020 TEMPO 1300/1306 4000 -SHRASN BKN012 SCT020TCU BECMG 1306/1308 4000 -RADZ BR BKN008 TEMPO 1308/1316 19018G28KT 1200 RASN BKN002 TEMPO 1316/1324 1200 SHRASN BR BKN002 SCT020CB EKRN 121723Z 1218/1223 29020KT 9999 BKN015 EKEB AMD 121925Z 1219/1223 20012KT 9999 SCT030 TEMPO 1219/1223 4000 SHRA BKN020CB EKKA 122309Z 1300/1324 21008KT 9999 SCT025 SCT040 TEMPO 1300/1305 3000 -SHRASN BR BKN006 SCT020CB BECMG 1305/1307 19012KT 6000 -RADZ BKN012 TEMPO 1307/1316 18018G28KT 2500 RASN BR BKN006 SCT020TCU TEMPO 1316/1324 2500 -RASN BR BKN003 SCT020TCU EKCH 122313Z 1300/1324 23015KT 9999 SCT020 TEMPO 1300/1304 21018G28KT FEW020CB TEMPO 1304/1312 21020G35KT BECMG 1312/1314 -RADZ BKN012 TEMPO 1314/1324 19020G35KT 2000 RASN BR BKN005 EKOD 121509Z 1215/1219 26008KT 9999 SCT025 EKRK 122328Z 1300/1309 23008KT 9999 SCT020 TEMPO 1300/1303 FEW020CB TEMPO 1305/1309 20015G25KT EKSP 122309Z 1300/1324 21008KT 9999 SCT020 SCT040 TEMPO 1300/1305 3000 -SHRASN BR BKN006 SCT020CB BECMG 1305/1307 19012KT 6000 -RADZ BKN012 TEMPO 1307/1316 18018G30KT 2500 RASN BR BKN006 SCT020TCU TEMPO 1316/1324 2500 -RASN BR BKN003 SCT020TCU EKVD 121156Z 1212/1217 31010KT 9999 SCT025 BECMG 1214/1217 26010KT ESTA 122002Z 1221/1223 31012KT 9999 BKN020 TEMPO 1221/1223 3000 SHRASN BKN010 SCT020CB ESNZ AMD 122117Z 1221/1224 28004KT 9999 OVC002 TEMPO 1221/1224 0500 BCFG SCT002 ESGP   ESGG 122330Z 1300/1324 19008KT 9999 -SN OVC003 PROB40 1300/1301 FZRA TEMPO 1300/1304 1200 SHSNRA BKN010 BKN020TCU BECMG 1304/1305 21015G25KT BKN030 BECMG 1307/1309 BKN008 TEMPO 1309/1324 2000 SNRA OVC004 BECMG 1317/1319 18008KT ESMT 121701Z 1218/1222 32012KT 9999 BKN020 TEMPO 1220/1222 3000 SHRASN BKN008 SCT020CB ESMQ 122030Z 1221/1223 27010KT 9999 FEW020 ESNQ 122030Z 1221/1224 36004KT 6000 -SN SCT010 BKN025 TEMPO 1221/1224 1800 SN VV008 ESPA 122030Z 1221/1224 36008KT 4000 -SN VV015 TEMPO 1221/1224 1200 SN VV006 ESMS 122311Z 1300/1324 24010KT 9999 SCT020 TEMPO 1300/1305 22015G25KT FEW020CB TEMPO 1305/1314 19018G30KT BKN012 BECMG 1314/1316 4000 -RASN BR BKN010 TEMPO 1316/1324 18018G28KT 1500 SNRA BKN004 ESSL AMD 122058Z 1220/1222 30010KT 9999 BKN012 BECMG 1220/1222 BKN015 ESSA 122330Z 1300/1324 26008KT CAVOK BECMG 1308/1310 20010KT PROB40 1309/1313 BKN006 BECMG 1322/1324 RASN ESSB AMD 121947Z 1219/1221 30010KT 9999 BKN011 BECMG 1219/1221 BKN018 ESKN 122330Z 1300/1324 27010KT CAVOK BECMG 1304/1306 21008KT TEMPO 1305/1309 4000 -SN BKN008 BECMG 1322/1324 RASN ESNU 122330Z 1300/1309 30010KT CAVOK ESSV 122030Z 1221/1223 30018G28KT 9999 -RASN BKN009 BECMG 1221/1223 BKN020 ENAN COR 1218/1318 20008KT CAVOK TEMPO 1312/1318 35010KT 2000 SHSN VV012 ENAT 121700Z 1218/1223 15008KT 9999 SCT033 ENHF 122300Z 1300/1309 VRB05KT 9999 FEW040 ENDU 1218/1318 VRB05KT 9999 FEW040 PROB30 TEMPO 1218/1306 1200 PRFG TEMPO 1312/1318 2000 SN VV008 ENBO COR 1218/1318 09008KT 9999 FEW040 TEMPO 1306/1318 18012KT ENEV 122000Z 1221/1224 VRB05KT CAVOK ENBR COR 1218/1318 VRB05KT 9999 FEW015 BKN030 PROB30 TEMPO 1218/1303 2000 SHSN VV009 BECMG 1300/1303 15015KT TEMPO 1305/1310 15020G30KT 2000 SNRA VV009 BECMG 1309/1311 21012KT TEMPO 1310/1315 22015G25KT 4000 SHRAGS BKN014CB BECMG 1316/1318 15010KT ENFL COR 121700Z 1218/1221 10012KT 9999 FEW020 SCT040 PROB40 TEMPO 1218/1221 2000 SHSN VV009 ENGM 1218/1318 VRB05KT CAVOK BECMG 1310/1312 3000 -SN BKN008 TEMPO 1311/1315 2000 SN VV004 PROB40 1315/1318 0500 FZFG VV001 ENHD COR 121700Z 1218/1222 12012KT 9999 FEW010 BKN030 PROB40 TEMPO 1218/1222 2000 SHSN VV008 ENCN 121700Z 1218/1222 VRB05KT 9999 FEW040 PROB30 TEMPO 1218/1222 2000 -SHSN BKN008 FEW020CB ENTC 1218/1318 VRB05KT CAVOK TEMPO 1312/1318 4000 -SN BKN012 ENFB   ENSB 1218/1318 10012KT 9999 SCT025 BKN035 ENNK   ENRO AMD 121322Z 1213/1219 24005KT 9999 FEW008 SCT035 PROB30 1215/1218 BKN008 TEMPO 1218/1219 2500 -SHSN VV012 ENRY 1218/1318 VRB05KT CAVOK BECMG 1307/1309 3000 -SN BKN008 PROB40 1308/1311 2000 FZRA BR BKN004 BECMG 1310/1312 18020G30KT RADZ BR BECMG 1315/1317 18008KT 9999 NSW BKN015 ENZV   ENVA COR 1218/1318 12007KT 9999 FEW015 BKN030 TEMPO 1218/1307 0800 SHSN VV005 BECMG 1221/1223 24012KT TEMPO 1223/1305 26015G25KT BECMG 1307/1309 12007KT ENAL COR 121700Z 1218/1223 17010KT 9999 FEW015 BKN030 TEMPO 1218/1223 21015G25KT 2500 SHSNRA BKN012CB EFET   EFTP 122326Z 1300/1324 28012KT 9999 SCT008 BKN015 TEMPO 1300/1303 BKN008 BECMG 1307/1309 22013KT BECMG 1316/1318 BKN008 TEMPO 1318/1323 4000 BR BKN004 EFTU 122336Z 1300/1400 28009KT 9999 BKN007 BKN020 BKN025 BECMG 1300/1302 BKN015 TEMPO 1300/1303 6000 -SN PROB30 1300/1303 FEW025CB TEMPO 1315/1320 6000 -RASN BKN012 PROB40 1315/1320 FEW030CB BIAR 122255Z 1300/1324 31005KT 9000 SN FEW022 BKN025 OVC035 TX00/1309Z TNM05/1324Z TEMPO 1300/1314 1500 SN OVC005 BECMG 1303/1306 35010KT BIEG 122255Z 1300/1324 11015KT 9999 RASN SCT020 OVC030 TX02/1300Z TN00/1315Z TEMPO 1300/1309 11015G25KT 5000 RASN BKN010 OVC020 BECMG 1309/1312 02013KT 9999 SHSN SCT020 BKN030 TEMPO 1309/1324 3000 SN OVC010 BIKF 122255Z 1300/1324 12010KT 9999 SCT030 TX01/1300Z TNM03/1312Z BECMG 1315/1318 03015KT BIRK 122255Z 1300/1324 09010KT 9999 FEW030 BKN055 TX01/1300Z TNM03/1316Z BGJN AMD 122300Z 1223/1301 09012KT 9999 FEW080 TEMPO 1223/1301 10018KT DRSN BKN020 BGSF AMD 122035Z 1220/1301 06006KT 9999 BKN030 TEMPO 1220/1301 22005KT 1200 -SN BKN010 BGKK AMD 122030Z 1220/1224 07015G25KT 8000 -SN BKN040 TEMPO 1220/1222 05035G52KT 1000 SN DRSN BLSN BKN014 BGBW AMD 121700Z 1217/1224 VRB05KT 8000 SCT090 PROB40 1217/1224 22008KT 2500 -SN BKN006 BGGH 122034Z 1221/1224 29012KT 9999 -SN SCT012 BKN035 TEMPO 1221/1224 1200 SN BLSN DRSN VV005 BGTL AMD 122010Z 1220/1324 09009KT 9999 FEW100 QNH2902INS BECMG 1305/1306 VRB06KT 9999 SCT060 BKN120 QNH2928INS BECMG 1310/1311 VRB06KT 9999 SCT080 BKN150 QNH2943INS TXM16/1220Z TNM24/1312Z LAST NO AMDS AFT 1220 NEXT 1302 BGSS 121451Z 1215/1221 31015KT 8000 -SN BKN060 TEMPO 1215/1221 33015G28KT 0800 -SG DRSN BLSN BKN008 EIDW 122300Z 1300/1324 24012KT 9999 FEW012 BKN030 BECMG 1303/1305 23016G27KT TEMPO 1305/1310 5000 -RA BKN013 FEW018CB PROB30 TEMPO 1309/1310 4000 RA BECMG 1310/1312 27016G27KT BECMG 1312/1314 24017G28KT TEMPO 1314/1316 25023G35KT 5000 SHRAGS SCT012 SCT018CB PROB30 TEMPO 1314/1316 3000 TSRA BKN010 BECMG 1316/1318 27021G33KT TEMPO 1316/1320 -SHRA SCT018CB PROB30 TEMPO 1316/1320 5000 SHRA TEMPO 1320/1324 27025G39KT 5000 SHRAGS SCT018CB PROB30 TEMPO 1320/1324 3000 SHRASN EINN COR 122325Z 1300/1324 26013KT 9999 FEW012 BKN030 BECMG 1300/1303 23015KT TEMPO 1303/1306 24017G28KT TEMPO 1303/1308 5000 -RA BKN012 FEW018CB BECMG 1306/1308 27018G28KT PROB30 TEMPO 1306/1308 4000 RA BECMG 1308/1310 28020G33KT TEMPO 1309/1313 -SHRA SCT018CB BECMG 1311/1313 25022G35KT TEMPO 1313/1314 26027G43KT TEMPO 1313/1324 5000 SHRA SCT010 SCT018CB PROB40 TEMPO 1313/1315 3000 TSRAGS BKN010 BECMG 1314/1315 28020G33KT BECMG 1315/1317 29025G40KT TEMPO 1316/1321 30030G45KT EICK 122300Z 1300/1324 25009KT 9999 FEW015 BKN025 PROB40 TEMPO 1301/1306 -SHRA BKN012 BECMG 1304/1307 24015G25KT TEMPO 1306/1309 4000 -RA BKN010 BECMG 1307/1309 24020G32KT BECMG 1309/1311 28022G35KT BECMG 1312/1314 25024G36KT TEMPO 1313/1316 4000 SHRAGS BKN010 SCT018CB TEMPO 1314/1315 26027G42KT PROB30 TEMPO 1314/1315 3000 TSRA BECMG 1315/1317 28025G40KT TEMPO 1316/1324 -SHRA SCT018CB PROB30 TEMPO 1316/1324 5000 SHRA TEMPO 1320/1324 28020G34KT EIKN 122300Z 1300/1324 23011KT 9999 SCT017 BKN030 PROB30 TEMPO 1300/1304 5000 -SHRA BKN010 TEMPO 1304/1307 4000 RA BKN008 FEW017CB TEMPO 1307/1311 5000 SHRA SCT010 SCT017CB BECMG 1307/1309 28017G28KT BECMG 1311/1313 24020G30KT TEMPO 1311/1314 3000 SHRAGS TS BKN008 SCT016CB BECMG 1313/1315 28017G27KT TEMPO 1314/1324 3000 SHRASN BKN004 SCT016CB BECMG 1316/1318 29021G32KT TEMPO 1316/1321 28024G37KT EPGD 122330Z 1300/1324 25012KT 9999 BKN025 PROB40 TEMPO 1302/1308 BKN004 BECMG 1309/1312 18012KT EPKK 122330Z 1300/1324 25010KT 9999 BKN030 TEMPO 1300/1306 BKN014 BECMG 1309/1312 VRB02KT EPKT 122330Z 1300/1324 25010KT 9999 BKN030 PROB30 TEMPO 1300/1306 VRB02KT BKN014 BECMG 1309/1312 18010KT EPMO 122330Z 1300/1324 27012KT 9999 BKN030 PROB40 TEMPO 1300/1302 27015G26KT PROB40 TEMPO 1302/1309 BKN012 BECMG 1310/1313 20005KT BECMG 1320/1322 17015KT EPPO 122330Z 1300/1324 26010KT 9999 BKN020 PROB40 1300/1307 BKN006 OVC011 BECMG 1308/1310 18010KT EPWA 122330Z 1300/1324 27014KT 9999 BKN040 PROB40 TEMPO 1302/1309 BKN014 BECMG 1310/1313 20005KT BECMG 1320/1322 17015KT LGAV 122300Z 1300/1324 27005KT 9999 FEW030 PROB30 1300/1306 5000 BR SCT010 BECMG 1307/1309 27015KT LGIR 122300Z 1300/1324 21005KT 9999 FEW020 TEMPO 1309/1315 31015KT SCT020 LGKO 122300Z 1300/1324 29010KT 9999 FEW015 SCT050 PROB30 1300/1306 3000 BR SCT010 BKN020 LGMK 122300Z 1300/1309 26010KT 9999 FEW018 PROB30 1300/1306 5000 BR SCT010 LGRP 122300Z 1300/1324 28010KT 9999 FEW015 SCT050 TEMPO 1306/1318 29010G20KT LGSA 122300Z 1300/1324 23005KT 9999 FEW020 TEMPO 1309/1315 29015KT SCT020 LGSR 122300Z 1300/1324 27014KT 9999 FEW020 BECMG 1322/1324 27018G28KT LGTS 122300Z 1300/1324 VRB03KT 5000 BR SCT008 PROB40 TEMPO 1303/1308 0500 FG BKN005 BECMG 1308/1310 9999 FEW030 BECMG 1320/1322 FEW015 SCT030 PROB30 TEMPO 1322/1324 7000 RA FEW010 BKN025 LTAI 122240Z 1300/1324 34007KT CAVOK BECMG 1310/1312 20010KT FEW030 BECMG 1313/1315 34007KT CAVOK LTBA 122240Z 1300/1406 23013KT CAVOK LTBJ 122240Z 1300/1324 VRB02KT CAVOK BECMG 1300/1302 3200 BR PROB40 1303/1306 0300 FG VV001 BECMG 1306/1308 5000 BECMG 1308/1310 9999 NSW FEW030 BECMG 1315/1317 CAVOK LTBS 122240Z 1300/1324 01006KT CAVOK BECMG 1307/1309 FEW030 BECMG 1315/1316 CAVOK LMML 122300Z 1300/1324 19010KT 9999 FEW025 BECMG 1308/1311 25010KT BECMG 1314/1317 32014KT PROB30 1315/1321 BKN014 LLBG 122322Z 1300/1324 17005KT CAVOK PROB40 1303/1307 6000 SCT012 BECMG 1307/1309 28012KT 9999 SCT025 BECMG 1315/1317 14004KT TX21/1312Z TN13/1304Z LLSD 122307Z 1300/1324 11005KT CAVOK BECMG 1301/1303 17006KT 6000 SCT012 PROB40 1303/1306 5000 BR BKN010 BECMG 1306/1308 29012KT 9999 SCT025 BECMG 1316/1319 20006KT TX21/1312Z TN15/1304Z GMAD 122300Z 1300/1406 07006KT CAVOK BECMG 1312/1314 26010KT GMMN 122300Z 1300/1406 09004KT CAVOK BECMG 1309/1312 02012KT 9999 FEW020 BECMG 1315/1317 08010KT BECMG 1322/1324 VRB01KT GMMX 122300Z 1300/1406 06006KT 8000 NSC TEMPO 1316/1321 34015KT HECA 122300Z 1300/1406 VRB03KT 4000 BR NSC TEMPO 1300/1307 2000 TEMPO 1302/1306 1500 PROB40 TEMPO 1303/1305 0800 FG HEGN 122300Z 1300/1406 30010G22KT CAVOK HELX 122300Z 1300/1406 34008KT 6000 NSC HESH 122300Z 1300/1406 32006G18KT CAVOK LBSF 122300Z 1300/1324 VRB04KT 5000 BR NSC TEMPO 1300/1308 1200 BR SCT010 PROB30 1302/1307 0600 FZFG BKN005 BECMG 1308/1310 13008KT 7000 SCT050 LCLK 122330Z 1300/1324 33009KT 9999 FEW030 LDZA 122325Z 1300/1400 20006KT 9999 BKN030 TX07/1300Z TN01/1323Z PROB40 TEMPO 1300/1312 4000 RA BKN010 OVC030 BECMG 1302/1304 03012KT PROB30 TEMPO 1303/1305 03015G25KT PROB30 TEMPO 1305/1312 3000 -RASN BKN006 OVC020 BECMG 1306/1308 03008KT BECMG 1310/1312 VRB02KT PROB30 1318/1400 2000 BR BKN005 LHBP 122315Z 1300/1324 31013KT 9999 -RA OVC030 TEMPO 1300/1303 5000 RA BR BKN014 OVC020 BECMG 1303/1306 31007KT CAVOK BECMG 1312/1314 VRB03KT BECMG 1318/1320 18004KT LJLJ 122300Z 1300/1324 27004KT 9999 SCT040 OVC100 TEMPO 1300/1303 10003KT -RA BKN035 OVC060 BECMG 1303/1305 10005KT 7000 RASN BKN010 OVC020 BECMG 1305/1307 3500 SN TEMPO 1306/1311 10010KT 0800 VV005 BECMG 1312/1315 7000 NSW TEMPO 1315/1324 SCT010 OVC020 LKPR 122300Z 1300/1406 22012KT CAVOK BECMG 1319/1321 9999 BKN030 TEMPO 1320/1406 21016G28KT TEMPO 1322/1406 5000 RASN BKN014 PROB30 TEMPO 1403/1406 24020G38KT LROP 122300Z 1300/1324 25012KT CAVOK PROB30 TEMPO 1321/1324 5000 -RA BKN010 BKN030 LYBE 122300Z 1300/1324 18009KT 9999 BKN030 TX13/1300Z TN02/1324Z BECMG 1305/1307 32010KT TEMPO 1310/1319 4000 -RA BR BKN010 BKN027 BECMG 1320/1322 21006KT 3000 BR LZIB 122300Z 1300/1400 32006KT 9999 FEW035 BKN080 BECMG 1308/1310 CAVOK BECMG 1312/1314 20005KT BECMG 1318/1320 16010KT UKBB 122303Z 1300/1324 20003G08MPS 6000 BKN012 TEMPO 1300/1307 1000 BR BKN004 BECMG 1308/1310 34005G10MPS TEMPO 1310/1324 2100 -SHRA BR BKN006 SCT015CB TX03/1312Z TN00/1302Z ULLI 122258Z 1300/1324 17006G13MPS 6000 BKN011 BKN020 TEMPO 1300/1304 21004G09MPS 3100 -SHRA BKN007 BKN015CB BECMG 1304/1306 23005G11MPS TEMPO 1304/1312 20007G14MPS 3100 -SHSNRA BKN007 BKN015CB TEMPO 1316/1324 3100 -SHSN BLSN BKN011 BKN015CB ULMM 122252Z 1300/1324 13003G08MPS 3100 -SHSN BR BKN007 BKN011CB TEMPO 1300/1309 16004G09MPS 0300 +SHSN VV001 TEMPO 1309/1324 16006G11MPS 2100 -SHSN BKN005 BKN011CB UMKK 122300Z 1300/1324 26008G16MPS 9999 SCT011 BKN015 TEMPO 1300/1309 3100 -SHRASN BKN005 BKN015CB BECMG 1306/1308 23008G14MPS BECMG 1314/1316 19007G13MPS UUEE 122300Z 1300/1324 15005MPS 6000 OVC005 TX03/1312Z TNM04/1400Z TEMPO 1300/1306 3100 BR BKN003 BECMG 1301/1304 20005MPS BECMG 1306/1310 BKN011 UUWW 122259Z 1300/1324 18005MPS 0500 FG OVC001 TX02/1312Z TNM00/1321Z TEMPO 1300/1308 1000 DZ BR OVC002 FM130900 24005MPS 9999 BKN010
RocketRoute WX - rrwx.com weather for pilots